sensor_id;sensor_type;location;lat;lon;timestamp;pressure;altitude;pressure_sealevel;temperature;humidity
64683;BME280;51107;47.652;19.016;2023-02-20T00:02:26;100573.47;;;3.89;63.46
64683;BME280;51107;47.652;19.016;2023-02-20T00:04:54;100554.69;;;3.87;63.93
64683;BME280;51107;47.652;19.016;2023-02-20T00:07:22;100574.25;;;3.75;64.26
64683;BME280;51107;47.652;19.016;2023-02-20T00:09:52;100563.75;;;4.08;61.76
64683;BME280;51107;47.652;19.016;2023-02-20T00:12:20;100572.91;;;3.84;62.60
64683;BME280;51107;47.652;19.016;2023-02-20T00:14:48;100569.84;;;3.77;62.48
64683;BME280;51107;47.652;19.016;2023-02-20T00:17:17;100568.25;;;3.74;63.09
64683;BME280;51107;47.652;19.016;2023-02-20T00:19:45;100573.66;;;3.86;63.96
64683;BME280;51107;47.652;19.016;2023-02-20T00:22:13;100568.13;;;3.92;63.37
64683;BME280;51107;47.652;19.016;2023-02-20T00:24:42;100579.31;;;3.93;63.97
64683;BME280;51107;47.652;19.016;2023-02-20T00:27:10;100584.91;;;3.99;62.42
64683;BME280;51107;47.652;19.016;2023-02-20T00:29:45;100578.94;;;3.99;63.64
64683;BME280;51107;47.652;19.016;2023-02-20T00:32:15;100588.25;;;4.01;63.02
64683;BME280;51107;47.652;19.016;2023-02-20T00:34:43;100594.50;;;4.12;62.62
64683;BME280;51107;47.652;19.016;2023-02-20T00:37:13;100599.84;;;3.78;62.60
64683;BME280;51107;47.652;19.016;2023-02-20T00:39:42;100579.22;;;4.08;61.76
64683;BME280;51107;47.652;19.016;2023-02-20T00:42:10;100599.28;;;4.03;63.25
64683;BME280;51107;47.652;19.016;2023-02-20T00:44:39;100597.06;;;3.97;63.24
64683;BME280;51107;47.652;19.016;2023-02-20T00:47:07;100588.66;;;3.63;64.03
64683;BME280;51107;47.652;19.016;2023-02-20T00:49:36;100584.88;;;3.85;65.06
64683;BME280;51107;47.652;19.016;2023-02-20T00:52:07;100590.00;;;3.54;65.39
64683;BME280;51107;47.652;19.016;2023-02-20T00:54:36;100595.38;;;3.66;66.28
64683;BME280;51107;47.652;19.016;2023-02-20T00:57:04;100601.81;;;3.59;65.53
64683;BME280;51107;47.652;19.016;2023-02-20T00:59:32;100599.81;;;3.64;65.99
64683;BME280;51107;47.652;19.016;2023-02-20T01:02:01;100593.75;;;3.49;66.39
64683;BME280;51107;47.652;19.016;2023-02-20T01:04:29;100599.63;;;3.67;66.61
64683;BME280;51107;47.652;19.016;2023-02-20T01:06:58;100603.91;;;3.98;62.24
64683;BME280;51107;47.652;19.016;2023-02-20T01:09:26;100599.81;;;3.64;62.48
64683;BME280;51107;47.652;19.016;2023-02-20T01:11:55;100609.63;;;3.57;66.14
64683;BME280;51107;47.652;19.016;2023-02-20T01:14:23;100607.78;;;3.59;65.72
64683;BME280;51107;47.652;19.016;2023-02-20T01:16:52;100606.84;;;3.76;63.64
64683;BME280;51107;47.652;19.016;2023-02-20T01:19:22;100630.47;;;3.68;63.59
64683;BME280;51107;47.652;19.016;2023-02-20T01:21:53;100628.16;;;3.48;63.46
64683;BME280;51107;47.652;19.016;2023-02-20T01:24:21;100637.03;;;3.74;64.77
64683;BME280;51107;47.652;19.016;2023-02-20T01:26:49;100630.31;;;3.55;64.29
64683;BME280;51107;47.652;19.016;2023-02-20T01:29:18;100627.03;;;3.04;65.47
64683;BME280;51107;47.652;19.016;2023-02-20T01:31:49;100633.69;;;3.08;67.38
64683;BME280;51107;47.652;19.016;2023-02-20T01:34:19;100635.88;;;3.16;66.20
64683;BME280;51107;47.652;19.016;2023-02-20T01:36:50;100643.69;;;3.14;67.98
64683;BME280;51107;47.652;19.016;2023-02-20T01:39:24;100638.88;;;2.75;67.53
64683;BME280;51107;47.652;19.016;2023-02-20T01:42:03;100645.53;;;2.95;68.96
64683;BME280;51107;47.652;19.016;2023-02-20T01:44:36;100644.44;;;2.83;68.38
64683;BME280;51107;47.652;19.016;2023-02-20T01:47:09;100640.16;;;2.66;66.95
64683;BME280;51107;47.652;19.016;2023-02-20T01:49:53;100642.53;;;2.53;68.40
64683;BME280;51107;47.652;19.016;2023-02-20T01:52:25;100653.09;;;2.64;70.05
64683;BME280;51107;47.652;19.016;2023-02-20T01:54:59;100657.69;;;2.75;68.85
64683;BME280;51107;47.652;19.016;2023-02-20T01:57:31;100662.69;;;2.78;69.71
64683;BME280;51107;47.652;19.016;2023-02-20T02:00:08;100658.50;;;2.42;71.27
64683;BME280;51107;47.652;19.016;2023-02-20T02:02:56;100661.66;;;2.47;70.48
64683;BME280;51107;47.652;19.016;2023-02-20T02:05:28;100650.56;;;2.29;69.85
64683;BME280;51107;47.652;19.016;2023-02-20T02:07:58;100639.38;;;2.30;70.08
64683;BME280;51107;47.652;19.016;2023-02-20T02:10:43;100649.50;;;2.33;70.72
64683;BME280;51107;47.652;19.016;2023-02-20T02:13:14;100664.69;;;2.55;71.48
64683;BME280;51107;47.652;19.016;2023-02-20T02:15:42;100658.41;;;2.44;71.81
64683;BME280;51107;47.652;19.016;2023-02-20T02:24:33;100672.94;;;2.62;71.91
64683;BME280;51107;47.652;19.016;2023-02-20T02:43:49;100700.78;;;2.54;74.84
64683;BME280;51107;47.652;19.016;2023-02-20T02:46:34;100702.88;;;2.28;75.76
64683;BME280;51107;47.652;19.016;2023-02-20T02:49:19;100704.72;;;2.26;74.92
64683;BME280;51107;47.652;19.016;2023-02-20T02:51:53;100704.09;;;2.21;75.62
64683;BME280;51107;47.652;19.016;2023-02-20T02:54:26;100705.91;;;2.36;75.72
64683;BME280;51107;47.652;19.016;2023-02-20T02:57:24;100722.00;;;2.23;75.99
64683;BME280;51107;47.652;19.016;2023-02-20T03:00:07;100719.09;;;2.30;76.09
64683;BME280;51107;47.652;19.016;2023-02-20T03:05:22;100731.44;;;2.41;75.42
64683;BME280;51107;47.652;19.016;2023-02-20T03:07:55;100723.56;;;2.44;76.25
64683;BME280;51107;47.652;19.016;2023-02-20T03:10:25;100715.16;;;2.58;75.39
64683;BME280;51107;47.652;19.016;2023-02-20T03:13:02;100716.25;;;2.17;76.26
64683;BME280;51107;47.652;19.016;2023-02-20T03:15:38;100719.22;;;2.27;77.70
64683;BME280;51107;47.652;19.016;2023-02-20T03:18:24;100714.69;;;2.32;77.85
64683;BME280;51107;47.652;19.016;2023-02-20T03:21:01;100710.22;;;2.36;78.43
64683;BME280;51107;47.652;19.016;2023-02-20T03:23:35;100715.16;;;2.41;77.00
64683;BME280;51107;47.652;19.016;2023-02-20T03:26:08;100700.34;;;2.09;78.86
64683;BME280;51107;47.652;19.016;2023-02-20T03:28:44;100705.09;;;1.99;79.10
64683;BME280;51107;47.652;19.016;2023-02-20T03:31:18;100704.63;;;1.91;79.56
64683;BME280;51107;47.652;19.016;2023-02-20T03:33:53;100709.22;;;2.21;78.42
64683;BME280;51107;47.652;19.016;2023-02-20T03:36:50;100708.69;;;2.14;79.22
64683;BME280;51107;47.652;19.016;2023-02-20T03:39:44;100704.00;;;2.23;79.47
64683;BME280;51107;47.652;19.016;2023-02-20T03:42:39;100715.06;;;2.42;78.13
64683;BME280;51107;47.652;19.016;2023-02-20T03:45:28;100725.66;;;2.36;78.75
64683;BME280;51107;47.652;19.016;2023-02-20T03:48:03;100719.16;;;2.29;79.84
64683;BME280;51107;47.652;19.016;2023-02-20T03:50:34;100724.22;;;2.30;79.62
64683;BME280;51107;47.652;19.016;2023-02-20T03:53:23;100728.91;;;2.22;79.92
64683;BME280;51107;47.652;19.016;2023-02-20T03:55:54;100726.78;;;2.30;79.43
64683;BME280;51107;47.652;19.016;2023-02-20T03:58:26;100731.87;;;2.49;78.59
64683;BME280;51107;47.652;19.016;2023-02-20T04:00:59;100730.62;;;2.21;79.33
64683;BME280;51107;47.652;19.016;2023-02-20T04:03:34;100733.84;;;2.08;80.96
64683;BME280;51107;47.652;19.016;2023-02-20T04:06:08;100747.66;;;1.87;81.58
64683;BME280;51107;47.652;19.016;2023-02-20T04:08:51;100737.56;;;1.83;82.63
64683;BME280;51107;47.652;19.016;2023-02-20T04:11:24;100735.41;;;1.93;82.42
64683;BME280;51107;47.652;19.016;2023-02-20T04:13:57;100737.50;;;1.65;83.39
64683;BME280;51107;47.652;19.016;2023-02-20T04:16:26;100730.00;;;1.80;83.78
64683;BME280;51107;47.652;19.016;2023-02-20T04:18:55;100723.66;;;1.68;83.21
64683;BME280;51107;47.652;19.016;2023-02-20T04:21:54;100723.41;;;1.74;83.23
64683;BME280;51107;47.652;19.016;2023-02-20T04:24:46;100717.00;;;1.83;83.26
64683;BME280;51107;47.652;19.016;2023-02-20T04:27:17;100721.53;;;1.78;83.89
64683;BME280;51107;47.652;19.016;2023-02-20T04:29:46;100721.78;;;1.91;84.28
64683;BME280;51107;47.652;19.016;2023-02-20T04:32:14;100730.97;;;1.77;84.17
64683;BME280;51107;47.652;19.016;2023-02-20T04:34:43;100736.97;;;1.78;84.22
64683;BME280;51107;47.652;19.016;2023-02-20T04:37:14;100737.28;;;1.70;84.54
64683;BME280;51107;47.652;19.016;2023-02-20T04:39:43;100730.22;;;1.94;83.81
64683;BME280;51107;47.652;19.016;2023-02-20T04:42:13;100731.66;;;2.00;83.18
64683;BME280;51107;47.652;19.016;2023-02-20T04:44:45;100722.81;;;2.06;82.48
64683;BME280;51107;47.652;19.016;2023-02-20T04:47:15;100701.56;;;2.02;83.27
64683;BME280;51107;47.652;19.016;2023-02-20T04:49:45;100714.00;;;1.92;82.79
64683;BME280;51107;47.652;19.016;2023-02-20T04:52:15;100711.84;;;2.02;83.36
64683;BME280;51107;47.652;19.016;2023-02-20T04:54:43;100700.34;;;1.92;82.89
64683;BME280;51107;47.652;19.016;2023-02-20T04:57:12;100711.59;;;1.89;84.31
64683;BME280;51107;47.652;19.016;2023-02-20T04:59:41;100710.56;;;1.74;84.94
64683;BME280;51107;47.652;19.016;2023-02-20T05:02:10;100712.25;;;1.75;84.43
64683;BME280;51107;47.652;19.016;2023-02-20T05:04:38;100703.50;;;1.79;84.37
64683;BME280;51107;47.652;19.016;2023-02-20T05:07:07;100700.91;;;1.79;83.82
64683;BME280;51107;47.652;19.016;2023-02-20T05:09:36;100706.59;;;1.86;84.12
64683;BME280;51107;47.652;19.016;2023-02-20T05:12:05;100711.53;;;1.91;83.76
64683;BME280;51107;47.652;19.016;2023-02-20T05:14:33;100706.81;;;1.81;84.34
64683;BME280;51107;47.652;19.016;2023-02-20T05:17:01;100699.88;;;1.64;84.99
64683;BME280;51107;47.652;19.016;2023-02-20T05:19:30;100720.50;;;1.82;84.62
64683;BME280;51107;47.652;19.016;2023-02-20T05:21:58;100718.91;;;1.79;84.18
64683;BME280;51107;47.652;19.016;2023-02-20T05:24:46;100715.63;;;1.76;84.54
64683;BME280;51107;47.652;19.016;2023-02-20T05:27:16;100711.94;;;1.81;84.22
64683;BME280;51107;47.652;19.016;2023-02-20T05:29:47;100720.19;;;1.88;83.87
64683;BME280;51107;47.652;19.016;2023-02-20T05:32:17;100732.63;;;1.97;83.65
64683;BME280;51107;47.652;19.016;2023-02-20T05:34:46;100725.81;;;1.96;83.02
64683;BME280;51107;47.652;19.016;2023-02-20T05:37:16;100735.87;;;2.01;83.50
64683;BME280;51107;47.652;19.016;2023-02-20T05:39:45;100742.09;;;2.14;82.18
64683;BME280;51107;47.652;19.016;2023-02-20T05:42:15;100738.25;;;2.23;81.85
64683;BME280;51107;47.652;19.016;2023-02-20T05:44:43;100727.69;;;2.29;81.52
64683;BME280;51107;47.652;19.016;2023-02-20T05:47:12;100716.00;;;2.04;82.04
64683;BME280;51107;47.652;19.016;2023-02-20T05:49:40;100722.97;;;2.20;81.62
64683;BME280;51107;47.652;19.016;2023-02-20T05:52:10;100737.16;;;2.29;82.35
64683;BME280;51107;47.652;19.016;2023-02-20T05:54:40;100744.78;;;2.30;80.88
64683;BME280;51107;47.652;19.016;2023-02-20T05:57:10;100739.69;;;2.11;82.77
64683;BME280;51107;47.652;19.016;2023-02-20T05:59:39;100742.66;;;2.21;82.57
64683;BME280;51107;47.652;19.016;2023-02-20T06:02:07;100751.31;;;2.37;81.48
64683;BME280;51107;47.652;19.016;2023-02-20T06:04:36;100746.91;;;2.22;82.39
64683;BME280;51107;47.652;19.016;2023-02-20T06:07:07;100751.06;;;2.25;82.78
64683;BME280;51107;47.652;19.016;2023-02-20T06:09:41;100757.94;;;2.24;82.45
64683;BME280;51107;47.652;19.016;2023-02-20T06:12:10;100750.06;;;2.27;82.76
64683;BME280;51107;47.652;19.016;2023-02-20T06:14:39;100758.31;;;2.34;82.21
64683;BME280;51107;47.652;19.016;2023-02-20T06:17:08;100753.41;;;2.29;82.32
64683;BME280;51107;47.652;19.016;2023-02-20T06:19:36;100762.91;;;2.27;82.40
64683;BME280;51107;47.652;19.016;2023-02-20T06:22:05;100768.31;;;2.40;81.53
64683;BME280;51107;47.652;19.016;2023-02-20T06:24:33;100770.19;;;2.36;81.74
64683;BME280;51107;47.652;19.016;2023-02-20T06:27:01;100772.03;;;2.52;81.51
64683;BME280;51107;47.652;19.016;2023-02-20T06:29:30;100777.50;;;2.63;80.61
64683;BME280;51107;47.652;19.016;2023-02-20T06:31:59;100766.84;;;2.53;80.87
64683;BME280;51107;47.652;19.016;2023-02-20T06:34:27;100771.28;;;2.50;80.76
64683;BME280;51107;47.652;19.016;2023-02-20T06:37:03;100776.13;;;2.56;81.45
64683;BME280;51107;47.652;19.016;2023-02-20T06:39:32;100765.38;;;2.65;81.44
64683;BME280;51107;47.652;19.016;2023-02-20T06:42:02;100778.63;;;2.75;80.52
64683;BME280;51107;47.652;19.016;2023-02-20T06:44:30;100777.94;;;2.89;79.27
64683;BME280;51107;47.652;19.016;2023-02-20T06:47:00;100769.66;;;2.84;79.45
64683;BME280;51107;47.652;19.016;2023-02-20T06:49:29;100771.44;;;2.82;79.49
64683;BME280;51107;47.652;19.016;2023-02-20T06:51:57;100773.72;;;2.88;79.78
64683;BME280;51107;47.652;19.016;2023-02-20T06:54:25;100771.28;;;3.02;78.33
64683;BME280;51107;47.652;19.016;2023-02-20T06:56:54;100770.47;;;3.02;78.81
64683;BME280;51107;47.652;19.016;2023-02-20T06:59:23;100774.84;;;3.00;79.05
64683;BME280;51107;47.652;19.016;2023-02-20T07:01:52;100771.81;;;3.09;78.29
64683;BME280;51107;47.652;19.016;2023-02-20T07:04:23;100776.19;;;3.07;77.87
64683;BME280;51107;47.652;19.016;2023-02-20T07:06:54;100783.25;;;2.86;79.39
64683;BME280;51107;47.652;19.016;2023-02-20T07:09:23;100784.53;;;2.95;78.87
64683;BME280;51107;47.652;19.016;2023-02-20T07:11:52;100769.63;;;3.01;80.13
64683;BME280;51107;47.652;19.016;2023-02-20T07:14:21;100768.00;;;3.16;79.02
64683;BME280;51107;47.652;19.016;2023-02-20T07:16:51;100775.97;;;3.12;80.25
64683;BME280;51107;47.652;19.016;2023-02-20T07:19:19;100764.62;;;3.16;79.26
64683;BME280;51107;47.652;19.016;2023-02-20T07:21:47;100760.16;;;3.02;80.04
64683;BME280;51107;47.652;19.016;2023-02-20T07:24:16;100765.75;;;3.10;80.14
64683;BME280;51107;47.652;19.016;2023-02-20T07:26:44;100771.91;;;3.08;80.32
64683;BME280;51107;47.652;19.016;2023-02-20T07:29:13;100779.66;;;3.23;80.76
64683;BME280;51107;47.652;19.016;2023-02-20T07:31:41;100786.34;;;3.10;82.63
64683;BME280;51107;47.652;19.016;2023-02-20T07:34:10;100780.69;;;3.03;83.02
64683;BME280;51107;47.652;19.016;2023-02-20T07:36:40;100792.19;;;2.96;84.77
64683;BME280;51107;47.652;19.016;2023-02-20T07:39:09;100789.84;;;3.09;84.49
64683;BME280;51107;47.652;19.016;2023-02-20T07:41:39;100783.47;;;2.99;87.22
64683;BME280;51107;47.652;19.016;2023-02-20T07:44:15;100777.41;;;3.17;86.05
64683;BME280;51107;47.652;19.016;2023-02-20T07:46:43;100781.50;;;3.04;86.88
64683;BME280;51107;47.652;19.016;2023-02-20T07:49:12;100784.69;;;2.92;88.40
64683;BME280;51107;47.652;19.016;2023-02-20T07:51:40;100756.81;;;3.00;88.05
64683;BME280;51107;47.652;19.016;2023-02-20T07:54:09;100770.22;;;3.06;88.53
64683;BME280;51107;47.652;19.016;2023-02-20T07:56:39;100771.94;;;3.23;87.52
64683;BME280;51107;47.652;19.016;2023-02-20T07:59:07;100780.19;;;3.30;87.13
64683;BME280;51107;47.652;19.016;2023-02-20T08:01:37;100793.75;;;3.34;86.60
64683;BME280;51107;47.652;19.016;2023-02-20T08:04:06;100795.28;;;3.20;86.73
64683;BME280;51107;47.652;19.016;2023-02-20T08:06:34;100796.41;;;3.15;86.98
64683;BME280;51107;47.652;19.016;2023-02-20T08:09:02;100788.09;;;3.10;86.76
64683;BME280;51107;47.652;19.016;2023-02-20T08:11:35;100784.84;;;3.39;87.29
64683;BME280;51107;47.652;19.016;2023-02-20T08:14:06;100783.78;;;3.44;86.30
64683;BME280;51107;47.652;19.016;2023-02-20T08:16:34;100792.31;;;3.62;85.13
64683;BME280;51107;47.652;19.016;2023-02-20T08:19:02;100793.88;;;3.64;85.57
64683;BME280;51107;47.652;19.016;2023-02-20T08:21:31;100781.41;;;3.56;85.70
64683;BME280;51107;47.652;19.016;2023-02-20T08:24:00;100781.09;;;3.79;87.88
64683;BME280;51107;47.652;19.016;2023-02-20T08:26:28;100780.97;;;3.48;90.51
64683;BME280;51107;47.652;19.016;2023-02-20T08:28:57;100782.37;;;3.54;90.52
64683;BME280;51107;47.652;19.016;2023-02-20T08:31:31;100767.78;;;3.54;92.31
64683;BME280;51107;47.652;19.016;2023-02-20T08:34:00;100771.53;;;3.65;89.99
64683;BME280;51107;47.652;19.016;2023-02-20T08:36:28;100779.94;;;3.68;91.38
64683;BME280;51107;47.652;19.016;2023-02-20T08:38:57;100775.19;;;3.77;91.08
64683;BME280;51107;47.652;19.016;2023-02-20T08:41:28;100778.78;;;3.90;92.13
64683;BME280;51107;47.652;19.016;2023-02-20T08:43:56;100761.12;;;4.30;91.53
64683;BME280;51107;47.652;19.016;2023-02-20T08:46:24;100778.78;;;4.22;88.76
64683;BME280;51107;47.652;19.016;2023-02-20T08:48:53;100775.94;;;4.27;88.27
64683;BME280;51107;47.652;19.016;2023-02-20T08:51:22;100757.56;;;4.63;86.91
64683;BME280;51107;47.652;19.016;2023-02-20T08:53:50;100761.41;;;4.56;86.58
64683;BME280;51107;47.652;19.016;2023-02-20T08:56:20;100757.56;;;4.63;86.41
64683;BME280;51107;47.652;19.016;2023-02-20T08:58:49;100745.72;;;5.04;86.49
64683;BME280;51107;47.652;19.016;2023-02-20T09:01:17;100744.81;;;4.90;84.29
64683;BME280;51107;47.652;19.016;2023-02-20T09:03:45;100739.94;;;5.29;83.50
64683;BME280;51107;47.652;19.016;2023-02-20T09:06:16;100737.81;;;5.21;83.44
64683;BME280;51107;47.652;19.016;2023-02-20T09:08:44;100742.53;;;5.29;82.64
64683;BME280;51107;47.652;19.016;2023-02-20T09:11:13;100735.87;;;5.10;82.54
64683;BME280;51107;47.652;19.016;2023-02-20T09:13:46;100742.69;;;5.12;82.21
64683;BME280;51107;47.652;19.016;2023-02-20T09:16:18;100750.75;;;4.76;84.48
64683;BME280;51107;47.652;19.016;2023-02-20T09:18:47;100741.38;;;4.90;85.21
64683;BME280;51107;47.652;19.016;2023-02-20T09:21:19;100742.31;;;5.03;85.07
64683;BME280;51107;47.652;19.016;2023-02-20T09:23:47;100722.31;;;5.07;85.40
64683;BME280;51107;47.652;19.016;2023-02-20T09:26:16;100723.97;;;5.37;83.58
64683;BME280;51107;47.652;19.016;2023-02-20T09:28:44;100727.38;;;4.94;84.16
64683;BME280;51107;47.652;19.016;2023-02-20T09:31:13;100732.00;;;5.03;84.02
64683;BME280;51107;47.652;19.016;2023-02-20T09:33:45;100733.66;;;5.19;85.42
64683;BME280;51107;47.652;19.016;2023-02-20T09:36:18;100716.09;;;5.38;85.63
64683;BME280;51107;47.652;19.016;2023-02-20T09:38:46;100715.84;;;5.43;83.16
64683;BME280;51107;47.652;19.016;2023-02-20T09:41:45;100713.97;;;5.45;83.95
64683;BME280;51107;47.652;19.016;2023-02-20T09:50:42;100703.66;;;5.45;85.87
64683;BME280;51107;47.652;19.016;2023-02-20T09:53:32;100704.25;;;5.77;85.50
64683;BME280;51107;47.652;19.016;2023-02-20T09:56:05;100691.66;;;5.44;86.43
64683;BME280;51107;47.652;19.016;2023-02-20T10:01:07;100692.19;;;6.18;85.20
64683;BME280;51107;47.652;19.016;2023-02-20T10:03:50;100692.72;;;5.96;84.57
64683;BME280;51107;47.652;19.016;2023-02-20T10:06:22;100694.28;;;6.26;83.51
64683;BME280;51107;47.652;19.016;2023-02-20T10:08:53;100687.13;;;6.17;84.86
64683;BME280;51107;47.652;19.016;2023-02-20T10:22:34;100693.59;;;5.40;88.01
64683;BME280;51107;47.652;19.016;2023-02-20T10:25:15;100673.75;;;5.41;88.37
64683;BME280;51107;47.652;19.016;2023-02-20T10:30:24;100671.81;;;5.44;88.42
64683;BME280;51107;47.652;19.016;2023-02-20T10:33:00;100665.47;;;5.63;88.72
64683;BME280;51107;47.652;19.016;2023-02-20T10:38:12;100639.47;;;5.66;88.33
64683;BME280;51107;47.652;19.016;2023-02-20T10:41:04;100643.75;;;5.53;89.13
64683;BME280;51107;47.652;19.016;2023-02-20T10:44:16;100639.03;;;5.87;88.39
64683;BME280;51107;47.652;19.016;2023-02-20T10:47:46;100632.44;;;5.68;89.39
64683;BME280;51107;47.652;19.016;2023-02-20T10:50:22;100634.41;;;5.50;89.83
64683;BME280;51107;47.652;19.016;2023-02-20T10:53:23;100628.41;;;5.77;90.49
64683;BME280;51107;47.652;19.016;2023-02-20T10:56:57;100623.50;;;5.87;90.18
64683;BME280;51107;47.652;19.016;2023-02-20T10:59:18;100609.03;;;5.97;90.38
64683;BME280;51107;47.652;19.016;2023-02-20T11:01:54;100596.47;;;6.05;89.99
64683;BME280;51107;47.652;19.016;2023-02-20T11:04:27;100592.63;;;6.11;89.56
64683;BME280;51107;47.652;19.016;2023-02-20T11:06:59;100596.66;;;6.02;89.49
64683;BME280;51107;47.652;19.016;2023-02-20T11:09:29;100582.81;;;6.16;90.04
64683;BME280;51107;47.652;19.016;2023-02-20T11:11:57;100577.25;;;6.35;89.78
64683;BME280;51107;47.652;19.016;2023-02-20T11:17:23;100566.66;;;6.64;88.84
64683;BME280;51107;47.652;19.016;2023-02-20T11:19:58;100555.47;;;6.76;87.64
64683;BME280;51107;47.652;19.016;2023-02-20T11:23:04;100544.84;;;6.92;88.03
64683;BME280;51107;47.652;19.016;2023-02-20T11:25:34;100556.41;;;7.12;86.97
64683;BME280;51107;47.652;19.016;2023-02-20T11:30:40;100544.66;;;7.20;85.31
64683;BME280;51107;47.652;19.016;2023-02-20T11:33:22;100533.84;;;7.26;85.81
64683;BME280;51107;47.652;19.016;2023-02-20T11:36:09;100533.03;;;7.25;85.69
64683;BME280;51107;47.652;19.016;2023-02-20T11:38:39;100528.03;;;7.46;86.14
64683;BME280;51107;47.652;19.016;2023-02-20T11:41:22;100521.75;;;7.62;85.46
64683;BME280;51107;47.652;19.016;2023-02-20T11:46:42;100505.16;;;8.45;80.48
64683;BME280;51107;47.652;19.016;2023-02-20T11:49:31;100494.97;;;8.76;78.30
64683;BME280;51107;47.652;19.016;2023-02-20T11:52:21;100500.97;;;8.77;77.46
64683;BME280;51107;47.652;19.016;2023-02-20T11:55:22;100499.91;;;8.79;77.90
64683;BME280;51107;47.652;19.016;2023-02-20T11:57:55;100481.22;;;8.86;77.29
64683;BME280;51107;47.652;19.016;2023-02-20T12:00:26;100470.94;;;9.28;76.15
64683;BME280;51107;47.652;19.016;2023-02-20T12:03:13;100469.19;;;9.49;74.69
64683;BME280;51107;47.652;19.016;2023-02-20T12:05:44;100463.53;;;9.86;73.58
64683;BME280;51107;47.652;19.016;2023-02-20T12:08:46;100456.63;;;10.07;72.59
64683;BME280;51107;47.652;19.016;2023-02-20T12:11:18;100441.63;;;10.20;71.82
64683;BME280;51107;47.652;19.016;2023-02-20T12:13:48;100433.22;;;10.16;69.98
64683;BME280;51107;47.652;19.016;2023-02-20T12:22:25;100413.00;;;10.70;68.80
64683;BME280;51107;47.652;19.016;2023-02-20T12:36:36;100397.91;;;11.13;66.07
64683;BME280;51107;47.652;19.016;2023-02-20T12:45:06;100388.09;;;11.35;65.95
64683;BME280;51107;47.652;19.016;2023-02-20T12:47:41;100393.44;;;11.53;63.84
64683;BME280;51107;47.652;19.016;2023-02-20T12:53:15;100385.91;;;11.30;65.21
64683;BME280;51107;47.652;19.016;2023-02-20T12:55:55;100388.09;;;11.35;65.91
64683;BME280;51107;47.652;19.016;2023-02-20T12:58:47;100381.81;;;11.18;65.99
64683;BME280;51107;47.652;19.016;2023-02-20T13:01:21;100377.84;;;11.24;65.71
64683;BME280;51107;47.652;19.016;2023-02-20T13:04:24;100374.94;;;11.27;66.22
64683;BME280;51107;47.652;19.016;2023-02-20T13:07:17;100381.53;;;11.41;66.29
64683;BME280;51107;47.652;19.016;2023-02-20T13:12:47;100390.31;;;11.39;66.33
64683;BME280;51107;47.652;19.016;2023-02-20T13:18:30;100362.19;;;11.24;66.56
64683;BME280;51107;47.652;19.016;2023-02-20T13:21:04;100363.97;;;11.33;65.80
64683;BME280;51107;47.652;19.016;2023-02-20T13:23:35;100371.25;;;11.19;65.82
64683;BME280;51107;47.652;19.016;2023-02-20T13:31:47;100355.56;;;11.29;66.66
64683;BME280;51107;47.652;19.016;2023-02-20T13:36:49;100349.88;;;11.16;66.91
64683;BME280;51107;47.652;19.016;2023-02-20T13:42:31;100333.09;;;11.28;66.95
64683;BME280;51107;47.652;19.016;2023-02-20T13:44:56;100327.28;;;11.34;65.85
64683;BME280;51107;47.652;19.016;2023-02-20T13:47:32;100340.53;;;11.13;66.18
64683;BME280;51107;47.652;19.016;2023-02-20T13:50:28;100315.97;;;10.96;65.66
64683;BME280;51107;47.652;19.016;2023-02-20T13:52:58;100315.75;;;10.90;66.61
64683;BME280;51107;47.652;19.016;2023-02-20T13:55:29;100304.06;;;10.94;65.72
64683;BME280;51107;47.652;19.016;2023-02-20T13:58:10;100297.75;;;10.77;65.56
64683;BME280;51107;47.652;19.016;2023-02-20T14:00:52;100296.12;;;10.76;65.70
64683;BME280;51107;47.652;19.016;2023-02-20T14:03:30;100287.75;;;10.82;66.36
64683;BME280;51107;47.652;19.016;2023-02-20T14:06:15;100290.38;;;10.62;66.38
64683;BME280;51107;47.652;19.016;2023-02-20T14:08:46;100290.78;;;10.67;67.43
64683;BME280;51107;47.652;19.016;2023-02-20T14:11:31;100295.97;;;10.67;66.18
64683;BME280;51107;47.652;19.016;2023-02-20T14:14:07;100297.22;;;10.63;65.60
64683;BME280;51107;47.652;19.016;2023-02-20T14:16:39;100311.63;;;10.67;65.36
64683;BME280;51107;47.652;19.016;2023-02-20T14:19:17;100295.31;;;10.75;66.11
64683;BME280;51107;47.652;19.016;2023-02-20T14:21:46;100289.97;;;10.57;66.48
64683;BME280;51107;47.652;19.016;2023-02-20T14:24:24;100289.28;;;10.75;65.85
64683;BME280;51107;47.652;19.016;2023-02-20T14:26:53;100287.78;;;10.62;66.72
64683;BME280;51107;47.652;19.016;2023-02-20T14:29:33;100282.16;;;10.57;65.38
64683;BME280;51107;47.652;19.016;2023-02-20T14:32:02;100281.72;;;10.62;66.17
64683;BME280;51107;47.652;19.016;2023-02-20T14:40:40;100258.28;;;10.62;64.55
64683;BME280;51107;47.652;19.016;2023-02-20T14:43:22;100263.34;;;10.53;64.77
64683;BME280;51107;47.652;19.016;2023-02-20T14:46:06;100268.56;;;10.53;64.57
64683;BME280;51107;47.652;19.016;2023-02-20T14:48:36;100272.69;;;10.56;64.08
64683;BME280;51107;47.652;19.016;2023-02-20T14:51:21;100270.22;;;10.54;64.89
64683;BME280;51107;47.652;19.016;2023-02-20T14:54:01;100266.94;;;10.43;66.31
64683;BME280;51107;47.652;19.016;2023-02-20T14:56:30;100254.84;;;10.32;65.56
64683;BME280;51107;47.652;19.016;2023-02-20T14:59:24;100251.84;;;10.36;66.27
64683;BME280;51107;47.652;19.016;2023-02-20T15:02:03;100247.84;;;10.32;66.33
64683;BME280;51107;47.652;19.016;2023-02-20T15:04:48;100259.78;;;10.25;66.23
64683;BME280;51107;47.652;19.016;2023-02-20T15:07:24;100248.94;;;10.10;67.40
64683;BME280;51107;47.652;19.016;2023-02-20T15:09:56;100245.38;;;10.11;67.34
64683;BME280;51107;47.652;19.016;2023-02-20T15:12:33;100243.22;;;10.26;67.08